sensor_id;sensor_type;location;lat;lon;timestamp;P1;durP1;ratioP1;P2;durP2;ratioP2
11807;SDS011;5961;42.640;23.380;2023-01-04T00:01:26;9.87;;;8.17;;
11807;SDS011;5961;42.640;23.380;2023-01-04T00:03:52;10.50;;;7.77;;
11807;SDS011;5961;42.640;23.380;2023-01-04T00:06:19;13.17;;;9.10;;
11807;SDS011;5961;42.640;23.380;2023-01-04T00:08:46;14.27;;;8.20;;
11807;SDS011;5961;42.640;23.380;2023-01-04T00:11:13;11.77;;;8.27;;
11807;SDS011;5961;42.640;23.380;2023-01-04T00:13:42;13.33;;;9.23;;
11807;SDS011;5961;42.640;23.380;2023-01-04T00:16:11;13.87;;;9.57;;
11807;SDS011;5961;42.640;23.380;2023-01-04T00:18:39;10.43;;;8.70;;
11807;SDS011;5961;42.640;23.380;2023-01-04T00:21:07;12.87;;;8.63;;
11807;SDS011;5961;42.640;23.380;2023-01-04T00:23:35;14.17;;;8.70;;
11807;SDS011;5961;42.640;23.380;2023-01-04T00:26:05;10.47;;;8.80;;
11807;SDS011;5961;42.640;23.380;2023-01-04T00:28:32;10.90;;;8.23;;
11807;SDS011;5961;42.640;23.380;2023-01-04T00:31:00;13.63;;;8.53;;
11807;SDS011;5961;42.640;23.380;2023-01-04T00:33:29;11.80;;;8.47;;
11807;SDS011;5961;42.640;23.380;2023-01-04T00:36:00;10.80;;;7.30;;
11807;SDS011;5961;42.640;23.380;2023-01-04T00:38:27;8.87;;;7.70;;
11807;SDS011;5961;42.640;23.380;2023-01-04T00:40:54;11.43;;;8.97;;
11807;SDS011;5961;42.640;23.380;2023-01-04T00:43:21;10.60;;;8.30;;
11807;SDS011;5961;42.640;23.380;2023-01-04T00:45:47;8.93;;;7.57;;
11807;SDS011;5961;42.640;23.380;2023-01-04T00:48:14;10.37;;;7.73;;
11807;SDS011;5961;42.640;23.380;2023-01-04T00:50:43;11.50;;;8.27;;
11807;SDS011;5961;42.640;23.380;2023-01-04T00:53:10;10.27;;;7.97;;
11807;SDS011;5961;42.640;23.380;2023-01-04T00:55:37;10.80;;;8.03;;
11807;SDS011;5961;42.640;23.380;2023-01-04T00:58:03;11.17;;;7.40;;
11807;SDS011;5961;42.640;23.380;2023-01-04T01:00:31;10.57;;;7.57;;
11807;SDS011;5961;42.640;23.380;2023-01-04T01:02:58;13.47;;;7.73;;
11807;SDS011;5961;42.640;23.380;2023-01-04T01:05:25;10.73;;;7.93;;
11807;SDS011;5961;42.640;23.380;2023-01-04T01:07:53;12.03;;;8.03;;
11807;SDS011;5961;42.640;23.380;2023-01-04T01:10:20;12.80;;;7.77;;
11807;SDS011;5961;42.640;23.380;2023-01-04T01:12:47;13.03;;;8.00;;
11807;SDS011;5961;42.640;23.380;2023-01-04T01:15:13;10.37;;;7.87;;
11807;SDS011;5961;42.640;23.380;2023-01-04T01:17:40;12.37;;;8.43;;
11807;SDS011;5961;42.640;23.380;2023-01-04T01:20:07;10.87;;;8.10;;
11807;SDS011;5961;42.640;23.380;2023-01-04T01:22:35;12.77;;;8.47;;
11807;SDS011;5961;42.640;23.380;2023-01-04T01:25:03;13.50;;;8.93;;
11807;SDS011;5961;42.640;23.380;2023-01-04T01:27:30;13.27;;;9.27;;
11807;SDS011;5961;42.640;23.380;2023-01-04T01:29:57;12.97;;;9.37;;
11807;SDS011;5961;42.640;23.380;2023-01-04T01:32:24;13.00;;;8.73;;
11807;SDS011;5961;42.640;23.380;2023-01-04T01:34:50;13.67;;;8.67;;
11807;SDS011;5961;42.640;23.380;2023-01-04T01:37:17;10.73;;;8.03;;
11807;SDS011;5961;42.640;23.380;2023-01-04T01:39:44;11.23;;;8.37;;
11807;SDS011;5961;42.640;23.380;2023-01-04T01:42:18;9.97;;;7.73;;
11807;SDS011;5961;42.640;23.380;2023-01-04T01:44:55;12.23;;;8.13;;
11807;SDS011;5961;42.640;23.380;2023-01-04T01:47:25;10.33;;;8.27;;
11807;SDS011;5961;42.640;23.380;2023-01-04T01:50:05;11.00;;;8.57;;
11807;SDS011;5961;42.640;23.380;2023-01-04T01:52:44;11.33;;;9.50;;
11807;SDS011;5961;42.640;23.380;2023-01-04T01:55:11;11.07;;;8.33;;
11807;SDS011;5961;42.640;23.380;2023-01-04T01:57:41;12.97;;;8.27;;
11807;SDS011;5961;42.640;23.380;2023-01-04T02:00:10;12.33;;;8.60;;
11807;SDS011;5961;42.640;23.380;2023-01-04T02:02:40;10.63;;;7.77;;
11807;SDS011;5961;42.640;23.380;2023-01-04T02:05:12;13.37;;;8.50;;
11807;SDS011;5961;42.640;23.380;2023-01-04T02:07:39;12.17;;;8.33;;
11807;SDS011;5961;42.640;23.380;2023-01-04T02:10:06;12.40;;;8.80;;
11807;SDS011;5961;42.640;23.380;2023-01-04T02:12:34;14.33;;;9.53;;
11807;SDS011;5961;42.640;23.380;2023-01-04T02:15:02;12.20;;;9.10;;
11807;SDS011;5961;42.640;23.380;2023-01-04T02:17:33;12.57;;;9.50;;
11807;SDS011;5961;42.640;23.380;2023-01-04T02:20:11;14.03;;;9.13;;
11807;SDS011;5961;42.640;23.380;2023-01-04T02:26:00;12.33;;;9.30;;
11807;SDS011;5961;42.640;23.380;2023-01-04T02:28:47;15.23;;;9.90;;
11807;SDS011;5961;42.640;23.380;2023-01-04T02:31:32;12.43;;;9.13;;
11807;SDS011;5961;42.640;23.380;2023-01-04T02:34:07;12.60;;;9.10;;
11807;SDS011;5961;42.640;23.380;2023-01-04T02:36:46;16.13;;;9.50;;
11807;SDS011;5961;42.640;23.380;2023-01-04T02:39:23;14.07;;;9.90;;
11807;SDS011;5961;42.640;23.380;2023-01-04T02:42:01;15.13;;;9.30;;
11807;SDS011;5961;42.640;23.380;2023-01-04T02:44:34;13.87;;;9.67;;
11807;SDS011;5961;42.640;23.380;2023-01-04T02:47:21;12.43;;;9.23;;
11807;SDS011;5961;42.640;23.380;2023-01-04T02:50:08;15.23;;;9.70;;
11807;SDS011;5961;42.640;23.380;2023-01-04T02:52:57;14.17;;;9.27;;
11807;SDS011;5961;42.640;23.380;2023-01-04T02:55:28;15.03;;;10.20;;
11807;SDS011;5961;42.640;23.380;2023-01-04T02:58:12;15.87;;;10.30;;
11807;SDS011;5961;42.640;23.380;2023-01-04T03:00:53;16.00;;;10.60;;
11807;SDS011;5961;42.640;23.380;2023-01-04T03:03:50;14.27;;;10.30;;
11807;SDS011;5961;42.640;23.380;2023-01-04T03:06:45;15.50;;;10.33;;
11807;SDS011;5961;42.640;23.380;2023-01-04T03:09:18;13.67;;;10.00;;
11807;SDS011;5961;42.640;23.380;2023-01-04T03:11:51;17.90;;;10.87;;
11807;SDS011;5961;42.640;23.380;2023-01-04T03:14:39;15.37;;;10.13;;
11807;SDS011;5961;42.640;23.380;2023-01-04T03:17:10;15.33;;;10.23;;
11807;SDS011;5961;42.640;23.380;2023-01-04T03:19:41;19.83;;;11.70;;
11807;SDS011;5961;42.640;23.380;2023-01-04T03:22:29;14.67;;;10.47;;
11807;SDS011;5961;42.640;23.380;2023-01-04T03:25:18;13.13;;;9.50;;
11807;SDS011;5961;42.640;23.380;2023-01-04T03:28:06;15.70;;;10.03;;
11807;SDS011;5961;42.640;23.380;2023-01-04T03:30:54;13.17;;;9.93;;
11807;SDS011;5961;42.640;23.380;2023-01-04T03:33:43;12.57;;;9.47;;
11807;SDS011;5961;42.640;23.380;2023-01-04T03:36:36;22.80;;;10.80;;
11807;SDS011;5961;42.640;23.380;2023-01-04T03:39:14;17.40;;;11.23;;
11807;SDS011;5961;42.640;23.380;2023-01-04T03:42:04;14.97;;;9.70;;
11807;SDS011;5961;42.640;23.380;2023-01-04T03:44:54;18.67;;;10.90;;
11807;SDS011;5961;42.640;23.380;2023-01-04T03:47:44;17.30;;;10.47;;
11807;SDS011;5961;42.640;23.380;2023-01-04T03:50:35;16.03;;;11.03;;
11807;SDS011;5961;42.640;23.380;2023-01-04T03:53:07;18.57;;;11.47;;
11807;SDS011;5961;42.640;23.380;2023-01-04T03:55:35;13.20;;;9.77;;
11807;SDS011;5961;42.640;23.380;2023-01-04T03:58:04;16.67;;;11.27;;
11807;SDS011;5961;42.640;23.380;2023-01-04T04:00:31;18.73;;;10.10;;
11807;SDS011;5961;42.640;23.380;2023-01-04T04:02:58;13.80;;;9.07;;
11807;SDS011;5961;42.640;23.380;2023-01-04T04:05:31;16.77;;;10.30;;
11807;SDS011;5961;42.640;23.380;2023-01-04T04:08:20;14.77;;;9.77;;
11807;SDS011;5961;42.640;23.380;2023-01-04T04:10:50;14.57;;;9.83;;
11807;SDS011;5961;42.640;23.380;2023-01-04T04:13:17;15.07;;;10.20;;
11807;SDS011;5961;42.640;23.380;2023-01-04T04:15:44;14.83;;;10.00;;
11807;SDS011;5961;42.640;23.380;2023-01-04T04:18:11;17.10;;;10.40;;
11807;SDS011;5961;42.640;23.380;2023-01-04T04:20:38;16.57;;;10.77;;
11807;SDS011;5961;42.640;23.380;2023-01-04T04:23:04;17.67;;;10.00;;
11807;SDS011;5961;42.640;23.380;2023-01-04T04:25:32;15.30;;;9.70;;
11807;SDS011;5961;42.640;23.380;2023-01-04T04:27:59;12.97;;;9.47;;
11807;SDS011;5961;42.640;23.380;2023-01-04T04:30:26;14.87;;;9.77;;
11807;SDS011;5961;42.640;23.380;2023-01-04T04:32:52;16.33;;;10.13;;
11807;SDS011;5961;42.640;23.380;2023-01-04T04:35:19;15.60;;;9.50;;
11807;SDS011;5961;42.640;23.380;2023-01-04T04:37:46;13.47;;;8.37;;
11807;SDS011;5961;42.640;23.380;2023-01-04T04:40:12;14.73;;;8.93;;
11807;SDS011;5961;42.640;23.380;2023-01-04T04:42:54;13.90;;;9.67;;
11807;SDS011;5961;42.640;23.380;2023-01-04T04:45:21;14.07;;;9.53;;
11807;SDS011;5961;42.640;23.380;2023-01-04T04:47:48;14.73;;;9.23;;
11807;SDS011;5961;42.640;23.380;2023-01-04T04:50:14;15.10;;;9.90;;
11807;SDS011;5961;42.640;23.380;2023-01-04T04:52:41;15.27;;;10.20;;
11807;SDS011;5961;42.640;23.380;2023-01-04T04:55:08;13.97;;;10.50;;
11807;SDS011;5961;42.640;23.380;2023-01-04T04:57:35;15.43;;;11.50;;
11807;SDS011;5961;42.640;23.380;2023-01-04T05:00:03;15.47;;;11.07;;
11807;SDS011;5961;42.640;23.380;2023-01-04T05:02:32;14.30;;;10.73;;
11807;SDS011;5961;42.640;23.380;2023-01-04T05:04:58;16.07;;;11.23;;
11807;SDS011;5961;42.640;23.380;2023-01-04T05:07:25;17.30;;;11.67;;
11807;SDS011;5961;42.640;23.380;2023-01-04T05:09:52;16.73;;;10.70;;
11807;SDS011;5961;42.640;23.380;2023-01-04T05:12:19;15.77;;;11.20;;
11807;SDS011;5961;42.640;23.380;2023-01-04T05:15:04;14.60;;;9.97;;
11807;SDS011;5961;42.640;23.380;2023-01-04T05:17:31;16.87;;;11.97;;
11807;SDS011;5961;42.640;23.380;2023-01-04T05:19:58;22.23;;;11.40;;
11807;SDS011;5961;42.640;23.380;2023-01-04T05:22:25;16.47;;;11.03;;
11807;SDS011;5961;42.640;23.380;2023-01-04T05:24:51;15.30;;;9.97;;
11807;SDS011;5961;42.640;23.380;2023-01-04T05:27:18;16.67;;;10.87;;
11807;SDS011;5961;42.640;23.380;2023-01-04T05:29:45;16.83;;;11.93;;
11807;SDS011;5961;42.640;23.380;2023-01-04T05:32:30;22.40;;;12.43;;
11807;SDS011;5961;42.640;23.380;2023-01-04T05:34:57;17.93;;;10.83;;
11807;SDS011;5961;42.640;23.380;2023-01-04T05:37:24;15.20;;;10.83;;
11807;SDS011;5961;42.640;23.380;2023-01-04T05:39:51;20.47;;;11.87;;
11807;SDS011;5961;42.640;23.380;2023-01-04T05:42:17;20.80;;;13.57;;
11807;SDS011;5961;42.640;23.380;2023-01-04T05:44:53;18.30;;;11.23;;
11807;SDS011;5961;42.640;23.380;2023-01-04T05:47:20;17.60;;;10.90;;
11807;SDS011;5961;42.640;23.380;2023-01-04T05:49:49;18.23;;;10.70;;
11807;SDS011;5961;42.640;23.380;2023-01-04T05:52:17;15.07;;;10.93;;
11807;SDS011;5961;42.640;23.380;2023-01-04T05:54:44;15.70;;;10.00;;
11807;SDS011;5961;42.640;23.380;2023-01-04T05:57:11;17.93;;;10.40;;
11807;SDS011;5961;42.640;23.380;2023-01-04T05:59:38;15.93;;;10.37;;
11807;SDS011;5961;42.640;23.380;2023-01-04T06:02:05;15.13;;;10.13;;
11807;SDS011;5961;42.640;23.380;2023-01-04T06:04:33;14.63;;;10.37;;
11807;SDS011;5961;42.640;23.380;2023-01-04T06:07:02;15.13;;;10.93;;
11807;SDS011;5961;42.640;23.380;2023-01-04T06:09:28;17.17;;;10.60;;
11807;SDS011;5961;42.640;23.380;2023-01-04T06:11:55;17.37;;;11.33;;
11807;SDS011;5961;42.640;23.380;2023-01-04T06:14:22;16.27;;;11.27;;
11807;SDS011;5961;42.640;23.380;2023-01-04T06:16:49;16.50;;;10.80;;
11807;SDS011;5961;42.640;23.380;2023-01-04T06:19:15;15.73;;;10.30;;
11807;SDS011;5961;42.640;23.380;2023-01-04T06:21:42;15.73;;;10.10;;
11807;SDS011;5961;42.640;23.380;2023-01-04T06:24:10;15.13;;;10.27;;
11807;SDS011;5961;42.640;23.380;2023-01-04T06:26:37;16.57;;;10.73;;
11807;SDS011;5961;42.640;23.380;2023-01-04T06:29:04;15.20;;;10.60;;
11807;SDS011;5961;42.640;23.380;2023-01-04T06:31:30;15.23;;;10.63;;
11807;SDS011;5961;42.640;23.380;2023-01-04T06:33:57;16.23;;;10.93;;
11807;SDS011;5961;42.640;23.380;2023-01-04T06:36:24;14.20;;;9.93;;
11807;SDS011;5961;42.640;23.380;2023-01-04T06:38:51;14.70;;;9.97;;
11807;SDS011;5961;42.640;23.380;2023-01-04T06:41:19;17.27;;;10.07;;
11807;SDS011;5961;42.640;23.380;2023-01-04T06:43:46;17.00;;;10.27;;
11807;SDS011;5961;42.640;23.380;2023-01-04T06:46:12;15.90;;;10.17;;
11807;SDS011;5961;42.640;23.380;2023-01-04T06:48:39;14.27;;;9.47;;
11807;SDS011;5961;42.640;23.380;2023-01-04T06:51:06;14.13;;;9.83;;
11807;SDS011;5961;42.640;23.380;2023-01-04T06:53:33;14.60;;;10.33;;
11807;SDS011;5961;42.640;23.380;2023-01-04T06:55:59;17.33;;;10.80;;
11807;SDS011;5961;42.640;23.380;2023-01-04T06:58:27;14.50;;;10.17;;
11807;SDS011;5961;42.640;23.380;2023-01-04T07:00:54;14.47;;;9.90;;
11807;SDS011;5961;42.640;23.380;2023-01-04T07:03:21;15.43;;;9.70;;
11807;SDS011;5961;42.640;23.380;2023-01-04T07:05:48;15.33;;;10.70;;
11807;SDS011;5961;42.640;23.380;2023-01-04T07:08:15;15.57;;;10.63;;
11807;SDS011;5961;42.640;23.380;2023-01-04T07:10:42;12.20;;;9.60;;
11807;SDS011;5961;42.640;23.380;2023-01-04T07:13:08;15.47;;;9.50;;
11807;SDS011;5961;42.640;23.380;2023-01-04T07:15:37;14.33;;;9.80;;
11807;SDS011;5961;42.640;23.380;2023-01-04T07:18:04;14.27;;;9.33;;
11807;SDS011;5961;42.640;23.380;2023-01-04T07:20:31;15.77;;;10.03;;
11807;SDS011;5961;42.640;23.380;2023-01-04T07:22:57;13.17;;;9.97;;
11807;SDS011;5961;42.640;23.380;2023-01-04T07:25:24;15.80;;;9.50;;
11807;SDS011;5961;42.640;23.380;2023-01-04T07:27:51;14.47;;;10.20;;
11807;SDS011;5961;42.640;23.380;2023-01-04T07:30:18;15.07;;;10.20;;
11807;SDS011;5961;42.640;23.380;2023-01-04T07:32:47;14.57;;;10.70;;
11807;SDS011;5961;42.640;23.380;2023-01-04T07:35:14;14.20;;;9.73;;
11807;SDS011;5961;42.640;23.380;2023-01-04T07:37:41;14.77;;;10.10;;
11807;SDS011;5961;42.640;23.380;2023-01-04T07:40:08;15.23;;;9.90;;
11807;SDS011;5961;42.640;23.380;2023-01-04T07:42:36;14.17;;;9.67;;
11807;SDS011;5961;42.640;23.380;2023-01-04T07:45:03;11.83;;;8.70;;
11807;SDS011;5961;42.640;23.380;2023-01-04T07:47:31;15.03;;;9.90;;
11807;SDS011;5961;42.640;23.380;2023-01-04T07:49:59;14.87;;;10.30;;
11807;SDS011;5961;42.640;23.380;2023-01-04T07:52:26;13.90;;;9.90;;
11807;SDS011;5961;42.640;23.380;2023-01-04T07:54:53;16.73;;;10.40;;
11807;SDS011;5961;42.640;23.380;2023-01-04T07:57:19;14.03;;;9.47;;
11807;SDS011;5961;42.640;23.380;2023-01-04T07:59:46;14.60;;;9.87;;
11807;SDS011;5961;42.640;23.380;2023-01-04T08:02:13;13.87;;;9.70;;
11807;SDS011;5961;42.640;23.380;2023-01-04T08:04:39;13.57;;;9.77;;
11807;SDS011;5961;42.640;23.380;2023-01-04T08:07:07;15.70;;;10.67;;
11807;SDS011;5961;42.640;23.380;2023-01-04T08:09:35;15.07;;;10.57;;
11807;SDS011;5961;42.640;23.380;2023-01-04T08:12:02;13.83;;;9.70;;
11807;SDS011;5961;42.640;23.380;2023-01-04T08:14:29;12.80;;;9.40;;
11807;SDS011;5961;42.640;23.380;2023-01-04T08:16:56;15.80;;;9.50;;
11807;SDS011;5961;42.640;23.380;2023-01-04T08:19:22;15.33;;;9.97;;
11807;SDS011;5961;42.640;23.380;2023-01-04T08:21:49;13.37;;;9.37;;
11807;SDS011;5961;42.640;23.380;2023-01-04T08:24:18;18.00;;;10.63;;
11807;SDS011;5961;42.640;23.380;2023-01-04T08:26:45;13.73;;;9.87;;
11807;SDS011;5961;42.640;23.380;2023-01-04T08:29:12;14.33;;;10.10;;
11807;SDS011;5961;42.640;23.380;2023-01-04T08:31:39;16.40;;;10.33;;
11807;SDS011;5961;42.640;23.380;2023-01-04T08:34:06;14.40;;;9.17;;
11807;SDS011;5961;42.640;23.380;2023-01-04T08:36:34;13.67;;;9.57;;
11807;SDS011;5961;42.640;23.380;2023-01-04T08:39:08;15.13;;;9.33;;
11807;SDS011;5961;42.640;23.380;2023-01-04T08:41:37;14.83;;;10.07;;
11807;SDS011;5961;42.640;23.380;2023-01-04T08:44:15;14.53;;;10.23;;
11807;SDS011;5961;42.640;23.380;2023-01-04T08:46:42;13.77;;;8.90;;
11807;SDS011;5961;42.640;23.380;2023-01-04T08:49:08;14.70;;;10.13;;
11807;SDS011;5961;42.640;23.380;2023-01-04T08:51:35;18.97;;;10.50;;
11807;SDS011;5961;42.640;23.380;2023-01-04T08:54:02;13.13;;;9.67;;
11807;SDS011;5961;42.640;23.380;2023-01-04T08:56:29;15.90;;;10.27;;
11807;SDS011;5961;42.640;23.380;2023-01-04T08:58:57;12.40;;;9.30;;
11807;SDS011;5961;42.640;23.380;2023-01-04T09:01:23;14.03;;;10.43;;
11807;SDS011;5961;42.640;23.380;2023-01-04T09:03:50;15.40;;;10.80;;
11807;SDS011;5961;42.640;23.380;2023-01-04T09:06:19;16.67;;;10.10;;
11807;SDS011;5961;42.640;23.380;2023-01-04T09:08:46;14.67;;;10.10;;
11807;SDS011;5961;42.640;23.380;2023-01-04T09:11:14;12.87;;;10.23;;
11807;SDS011;5961;42.640;23.380;2023-01-04T09:13:42;14.40;;;10.40;;
11807;SDS011;5961;42.640;23.380;2023-01-04T09:16:11;14.07;;;9.60;;
11807;SDS011;5961;42.640;23.380;2023-01-04T09:18:39;14.90;;;9.57;;
11807;SDS011;5961;42.640;23.380;2023-01-04T09:21:06;14.47;;;9.60;;
11807;SDS011;5961;42.640;23.380;2023-01-04T09:23:34;15.10;;;10.00;;
11807;SDS011;5961;42.640;23.380;2023-01-04T09:26:04;14.03;;;9.73;;
11807;SDS011;5961;42.640;23.380;2023-01-04T09:28:31;13.77;;;10.50;;
11807;SDS011;5961;42.640;23.380;2023-01-04T09:30:57;18.73;;;11.40;;
11807;SDS011;5961;42.640;23.380;2023-01-04T09:33:30;15.70;;;11.00;;
11807;SDS011;5961;42.640;23.380;2023-01-04T09:35:59;15.10;;;10.17;;
11807;SDS011;5961;42.640;23.380;2023-01-04T09:38:26;16.87;;;10.30;;
11807;SDS011;5961;42.640;23.380;2023-01-04T09:40:54;13.20;;;9.90;;
11807;SDS011;5961;42.640;23.380;2023-01-04T09:43:30;14.83;;;9.77;;
11807;SDS011;5961;42.640;23.380;2023-01-04T09:46:03;14.77;;;10.67;;
11807;SDS011;5961;42.640;23.380;2023-01-04T09:48:37;17.40;;;9.70;;
11807;SDS011;5961;42.640;23.380;2023-01-04T09:51:11;13.87;;;10.20;;
11807;SDS011;5961;42.640;23.380;2023-01-04T09:53:42;15.07;;;9.60;;
11807;SDS011;5961;42.640;23.380;2023-01-04T09:56:13;12.63;;;8.57;;
11807;SDS011;5961;42.640;23.380;2023-01-04T09:58:43;12.50;;;8.83;;
11807;SDS011;5961;42.640;23.380;2023-01-04T10:01:11;16.63;;;9.77;;
11807;SDS011;5961;42.640;23.380;2023-01-04T10:03:45;13.40;;;9.60;;
11807;SDS011;5961;42.640;23.380;2023-01-04T10:06:18;14.17;;;10.30;;
11807;SDS011;5961;42.640;23.380;2023-01-04T10:08:45;15.23;;;9.60;;
11807;SDS011;5961;42.640;23.380;2023-01-04T10:11:16;11.43;;;8.50;;
11807;SDS011;5961;42.640;23.380;2023-01-04T10:13:58;14.33;;;9.87;;
11807;SDS011;5961;42.640;23.380;2023-01-04T10:16:42;13.97;;;9.47;;
11807;SDS011;5961;42.640;23.380;2023-01-04T10:19:29;12.33;;;9.20;;
11807;SDS011;5961;42.640;23.380;2023-01-04T10:22:04;13.80;;;9.83;;
11807;SDS011;5961;42.640;23.380;2023-01-04T10:24:40;19.93;;;10.50;;
11807;SDS011;5961;42.640;23.380;2023-01-04T10:27:18;14.50;;;9.40;;
11807;SDS011;5961;42.640;23.380;2023-01-04T10:29:55;13.40;;;8.43;;
11807;SDS011;5961;42.640;23.380;2023-01-04T10:32:31;13.60;;;9.23;;
11807;SDS011;5961;42.640;23.380;2023-01-04T10:35:12;16.47;;;9.97;;
11807;SDS011;5961;42.640;23.380;2023-01-04T10:37:45;13.50;;;9.10;;
11807;SDS011;5961;42.640;23.380;2023-01-04T10:40:14;14.47;;;9.07;;
11807;SDS011;5961;42.640;23.380;2023-01-04T10:42:43;16.07;;;9.60;;
11807;SDS011;5961;42.640;23.380;2023-01-04T10:45:19;13.23;;;9.77;;
11807;SDS011;5961;42.640;23.380;2023-01-04T10:47:55;16.07;;;10.17;;
11807;SDS011;5961;42.640;23.380;2023-01-04T10:50:32;16.80;;;10.43;;
11807;SDS011;5961;42.640;23.380;2023-01-04T10:53:05;16.60;;;10.80;;
11807;SDS011;5961;42.640;23.380;2023-01-04T10:55:38;15.53;;;10.00;;
11807;SDS011;5961;42.640;23.380;2023-01-04T10:58:12;14.50;;;9.90;;
11807;SDS011;5961;42.640;23.380;2023-01-04T11:00:45;13.47;;;9.37;;
11807;SDS011;5961;42.640;23.380;2023-01-04T11:03:17;15.07;;;10.57;;
11807;SDS011;5961;42.640;23.380;2023-01-04T11:05:52;13.70;;;10.00;;
11807;SDS011;5961;42.640;23.380;2023-01-04T11:08:25;15.73;;;10.70;;
11807;SDS011;5961;42.640;23.380;2023-01-04T11:10:58;18.00;;;11.07;;
11807;SDS011;5961;42.640;23.380;2023-01-04T11:13:31;17.57;;;10.93;;
11807;SDS011;5961;42.640;23.380;2023-01-04T11:15:59;14.93;;;10.73;;
11807;SDS011;5961;42.640;23.380;2023-01-04T11:18:27;18.30;;;11.50;;
11807;SDS011;5961;42.640;23.380;2023-01-04T11:20:55;18.43;;;10.43;;
11807;SDS011;5961;42.640;23.380;2023-01-04T11:23:22;17.20;;;11.07;;
11807;SDS011;5961;42.640;23.380;2023-01-04T11:25:50;13.50;;;10.07;;
11807;SDS011;5961;42.640;23.380;2023-01-04T11:28:22;15.23;;;10.43;;
11807;SDS011;5961;42.640;23.380;2023-01-04T11:30:53;12.53;;;9.10;;
11807;SDS011;5961;42.640;23.380;2023-01-04T11:33:25;13.47;;;8.67;;
11807;SDS011;5961;42.640;23.380;2023-01-04T11:35:53;12.90;;;9.07;;
11807;SDS011;5961;42.640;23.380;2023-01-04T11:38:22;14.80;;;9.60;;
11807;SDS011;5961;42.640;23.380;2023-01-04T11:40:56;14.83;;;9.37;;
11807;SDS011;5961;42.640;23.380;2023-01-04T11:43:24;13.90;;;9.53;;
11807;SDS011;5961;42.640;23.380;2023-01-04T11:45:53;13.73;;;9.77;;
11807;SDS011;5961;42.640;23.380;2023-01-04T11:48:32;12.43;;;8.53;;
11807;SDS011;5961;42.640;23.380;2023-01-04T11:51:02;15.20;;;9.27;;
11807;SDS011;5961;42.640;23.380;2023-01-04T11:53:32;12.40;;;9.30;;
11807;SDS011;5961;42.640;23.380;2023-01-04T11:56:10;15.90;;;8.97;;
11807;SDS011;5961;42.640;23.380;2023-01-04T11:58:39;14.30;;;9.30;;
11807;SDS011;5961;42.640;23.380;2023-01-04T12:01:17;14.93;;;9.47;;
11807;SDS011;5961;42.640;23.380;2023-01-04T12:03:46;17.37;;;10.17;;
11807;SDS011;5961;42.640;23.380;2023-01-04T12:06:15;14.47;;;9.53;;
11807;SDS011;5961;42.640;23.380;2023-01-04T12:08:46;16.13;;;10.03;;
11807;SDS011;5961;42.640;23.380;2023-01-04T12:11:16;18.10;;;9.07;;
11807;SDS011;5961;42.640;23.380;2023-01-04T12:13:45;13.93;;;9.40;;
11807;SDS011;5961;42.640;23.380;2023-01-04T12:16:15;14.90;;;10.00;;
11807;SDS011;5961;42.640;23.380;2023-01-04T12:18:46;14.40;;;9.93;;
11807;SDS011;5961;42.640;23.380;2023-01-04T12:21:15;12.57;;;8.67;;
11807;SDS011;5961;42.640;23.380;2023-01-04T12:23:44;10.03;;;8.20;;
11807;SDS011;5961;42.640;23.380;2023-01-04T12:26:13;12.13;;;8.93;;
11807;SDS011;5961;42.640;23.380;2023-01-04T12:28:42;11.27;;;7.97;;
11807;SDS011;5961;42.640;23.380;2023-01-04T12:31:27;14.67;;;8.50;;
11807;SDS011;5961;42.640;23.380;2023-01-04T12:33:56;13.50;;;8.87;;
11807;SDS011;5961;42.640;23.380;2023-01-04T12:36:53;12.40;;;8.43;;
11807;SDS011;5961;42.640;23.380;2023-01-04T12:39:26;11.73;;;8.97;;
11807;SDS011;5961;42.640;23.380;2023-01-04T12:42:08;11.37;;;8.40;;
11807;SDS011;5961;42.640;23.380;2023-01-04T12:44:57;13.20;;;8.90;;
11807;SDS011;5961;42.640;23.380;2023-01-04T12:47:39;12.73;;;8.70;;
11807;SDS011;5961;42.640;23.380;2023-01-04T12:50:23;13.37;;;8.60;;
11807;SDS011;5961;42.640;23.380;2023-01-04T12:52:52;12.03;;;8.80;;
11807;SDS011;5961;42.640;23.380;2023-01-04T12:55:24;11.33;;;8.20;;
11807;SDS011;5961;42.640;23.380;2023-01-04T13:01:08;12.07;;;8.53;;
11807;SDS011;5961;42.640;23.380;2023-01-04T13:03:51;13.20;;;9.10;;
11807;SDS011;5961;42.640;23.380;2023-01-04T13:06:21;11.17;;;8.53;;
11807;SDS011;5961;42.640;23.380;2023-01-04T13:08:50;11.23;;;8.27;;
11807;SDS011;5961;42.640;23.380;2023-01-04T13:11:23;11.53;;;8.40;;
11807;SDS011;5961;42.640;23.380;2023-01-04T13:14:01;13.10;;;8.73;;
11807;SDS011;5961;42.640;23.380;2023-01-04T13:16:34;12.77;;;8.87;;
11807;SDS011;5961;42.640;23.380;2023-01-04T13:19:09;11.83;;;8.57;;
11807;SDS011;5961;42.640;23.380;2023-01-04T13:21:41;12.50;;;9.13;;
11807;SDS011;5961;42.640;23.380;2023-01-04T13:24:13;13.83;;;9.50;;
11807;SDS011;5961;42.640;23.380;2023-01-04T13:26:47;15.07;;;9.13;;
11807;SDS011;5961;42.640;23.380;2023-01-04T13:29:16;15.87;;;10.57;;
11807;SDS011;5961;42.640;23.380;2023-01-04T13:31:46;13.27;;;9.57;;
11807;SDS011;5961;42.640;23.380;2023-01-04T13:34:19;17.00;;;10.30;;
11807;SDS011;5961;42.640;23.380;2023-01-04T13:39:50;13.97;;;9.83;;
11807;SDS011;5961;42.640;23.380;2023-01-04T13:42:26;15.50;;;9.60;;
11807;SDS011;5961;42.640;23.380;2023-01-04T13:45:03;16.13;;;9.73;;
11807;SDS011;5961;42.640;23.380;2023-01-04T13:47:46;14.07;;;8.93;;
11807;SDS011;5961;42.640;23.380;2023-01-04T13:50:24;14.67;;;9.80;;
11807;SDS011;5961;42.640;23.380;2023-01-04T13:52:54;13.93;;;10.10;;
11807;SDS011;5961;42.640;23.380;2023-01-04T13:55:21;15.83;;;10.53;;
11807;SDS011;5961;42.640;23.380;2023-01-04T13:57:53;15.63;;;10.17;;
11807;SDS011;5961;42.640;23.380;2023-01-04T14:00:20;17.50;;;10.70;;
11807;SDS011;5961;42.640;23.380;2023-01-04T14:02:58;15.87;;;10.03;;
11807;SDS011;5961;42.640;23.380;2023-01-04T14:05:30;15.73;;;10.37;;
11807;SDS011;5961;42.640;23.380;2023-01-04T14:07:57;16.47;;;10.93;;
11807;SDS011;5961;42.640;23.380;2023-01-04T14:10:25;15.77;;;10.47;;
11807;SDS011;5961;42.640;23.380;2023-01-04T14:12:53;16.93;;;10.63;;
11807;SDS011;5961;42.640;23.380;2023-01-04T14:15:20;15.10;;;10.13;;
11807;SDS011;5961;42.640;23.380;2023-01-04T14:17:49;17.47;;;11.27;;
11807;SDS011;5961;42.640;23.380;2023-01-04T14:20:31;16.63;;;10.73;;
11807;SDS011;5961;42.640;23.380;2023-01-04T14:23:00;18.03;;;11.90;;
11807;SDS011;5961;42.640;23.380;2023-01-04T14:25:36;16.20;;;11.27;;
11807;SDS011;5961;42.640;23.380;2023-01-04T14:28:23;19.03;;;11.57;;
11807;SDS011;5961;42.640;23.380;2023-01-04T14:30:53;18.13;;;11.77;;
11807;SDS011;5961;42.640;23.380;2023-01-04T14:33:23;18.70;;;11.87;;
11807;SDS011;5961;42.640;23.380;2023-01-04T14:36:02;18.97;;;11.70;;
11807;SDS011;5961;42.640;23.380;2023-01-04T14:38:36;16.90;;;11.47;;
11807;SDS011;5961;42.640;23.380;2023-01-04T14:41:09;21.20;;;12.03;;
11807;SDS011;5961;42.640;23.380;2023-01-04T14:43:43;20.57;;;13.80;;
11807;SDS011;5961;42.640;23.380;2023-01-04T14:46:11;20.10;;;13.07;;
11807;SDS011;5961;42.640;23.380;2023-01-04T14:48:37;18.40;;;12.63;;
11807;SDS011;5961;42.640;23.380;2023-01-04T14:51:04;18.07;;;12.07;;
11807;SDS011;5961;42.640;23.380;2023-01-04T14:53:32;18.80;;;11.90;;
11807;SDS011;5961;42.640;23.380;2023-01-04T14:56:00;19.13;;;11.53;;
11807;SDS011;5961;42.640;23.380;2023-01-04T14:58:27;19.90;;;12.00;;
11807;SDS011;5961;42.640;23.380;2023-01-04T15:00:55;18.77;;;11.37;;